Fidato — PB5970 — position and weather

sailwx.info

Track history (hours):
 
Tides and Currents Weather Stations Pressure Air Temp Water Temp Dewpoint Dewpoint Depression Visibility Wind Speed Wind Dir Waves Ship Positions

Fidato

Last reported at 2015-Mar-03 20:26 UTC. Time now 2015-Mar-04 00:14 UTC.
Position N 48°41' E 007°54'.

Length 135 m; draft 2.5 m.

Type: Ship. MMSI: 244670975.

Date/timePositionNaut miles runAvg speedWind from/ knotsBaromVisibWave heightAir tempDewpointWater temp
2015-Mar-03 20:26N 48°41' E 007°54'4 4.2
2015-Mar-03 19:33N 48°43' E 007°58'5 5.3
2015-Mar-03 18:32N 48°47' E 008°03'5 4.6
2015-Mar-03 17:32N 48°51' E 008°07'5 5.4
2015-Mar-03 16:33N 48°56' E 008°11'5 5.2
2015-Mar-03 15:33N 48°59' E 008°17'2 1.9
2015-Mar-03 14:33N 49°01' E 008°18'0 0.0
2015-Mar-03 13:33N 49°01' E 008°18'0 0.0
2015-Mar-03 12:33N 49°01' E 008°18'0 0.0
2015-Mar-03 11:33N 49°01' E 008°18'0 0.0
2015-Mar-03 10:33N 49°01' E 008°18'0 0.0
2015-Mar-03 09:33N 49°01' E 008°18'0 0.0
2015-Mar-03 08:33N 49°01' E 008°18'0 0.0
2015-Mar-03 07:33N 49°01' E 008°18'0 0.0
2015-Mar-03 06:33N 49°01' E 008°18'0 0.0
2015-Mar-03 05:33N 49°01' E 008°18'0 0.0
2015-Mar-03 04:33N 49°01' E 008°18'0 0.0
2015-Mar-03 03:33N 49°01' E 008°18'0 0.0
2015-Mar-03 02:33N 49°01' E 008°18'0 0.0
2015-Mar-03 01:34N 49°01' E 008°18'0 0.0
2015-Mar-03 00:33N 49°01' E 008°18'0 0.0
2015-Mar-02 23:33N 49°01' E 008°18'0 0.0
2015-Mar-02 22:33N 49°01' E 008°18'0 0.0
2015-Mar-02 21:33N 49°01' E 008°18'0 0.0
2015-Mar-02 20:33N 49°01' E 008°18'0 0.0
2015-Mar-02 19:33N 49°01' E 008°18'0 0.0
2015-Mar-02 18:33N 49°01' E 008°18'0 0.0
2015-Mar-02 17:33N 49°01' E 008°18'0 0.0
2015-Mar-02 16:33N 49°01' E 008°18'0 0.0
2015-Mar-02 15:33N 49°01' E 008°18'0 0.0
2015-Mar-02 14:33N 49°01' E 008°18'0 0.0
2015-Mar-02 13:33N 49°01' E 008°18'1 1.1
2015-Mar-02 12:33N 49°02' E 008°18'4 3.9
2015-Mar-02 11:33N 49°05' E 008°21'4 3.8
2015-Mar-02 10:34N 49°09' E 008°22'4 3.6
2015-Mar-02 09:33N 49°13' E 008°23'3 3.2
2015-Mar-02 08:33N 49°15' E 008°26'4 3.6
2015-Mar-02 07:33N 49°18' E 008°29'3 3.4
2015-Mar-02 06:32N 49°22' E 008°30'122 2.6
2015-Feb-28 06:33N 51°07' E 006°52'3 2.6
2015-Feb-28 05:33N 51°09' E 006°49'3 3.1
2015-Feb-28 04:33N 51°11' E 006°45'0 0.0
2015-Feb-28 03:33N 51°11' E 006°45'0 0.0
2015-Feb-28 02:33N 51°11' E 006°45'0 0.0
2015-Feb-28 01:33N 51°11' E 006°45'0 0.0
2015-Feb-28 00:33N 51°11' E 006°45'0 0.0
2015-Feb-27 23:33N 51°11' E 006°45'3 2.9
2015-Feb-27 22:33N 51°13' E 006°43'2 2.0
2015-Feb-27 21:31N 51°15' E 006°43'5 4.3
2015-Feb-27 20:25N 51°20' E 006°42'45 3.5
2015-Feb-27 07:31N 51°51' E 005°51'6 6.3
2015-Feb-27 06:33N 51°54' E 005°42'6 6.3
2015-Feb-27 05:33N 51°53' E 005°31'4 3.9
2015-Feb-27 04:33N 51°55' E 005°26'3 3.0
2015-Feb-27 03:33N 51°57' E 005°22'0 0.0
2015-Feb-27 02:33N 51°57' E 005°22'0 0.0
2015-Feb-27 01:33N 51°57' E 005°22'0 0.0
2015-Feb-27 00:33N 51°57' E 005°22'0 0.0
2015-Feb-26 23:33N 51°57' E 005°22'0 0.0
2015-Feb-26 22:33N 51°57' E 005°22'0 0.0
2015-Feb-26 21:34N 51°57' E 005°22'2 2.0
2015-Feb-26 20:33N 51°58' E 005°19'8 7.7
2015-Feb-26 19:33N 52°02' E 005°08'7 7.4
2015-Feb-26 18:33N 52°08' E 005°02'7 7.1
2015-Feb-26 17:33N 52°15' E 005°01'7 7.1
2015-Feb-26 16:34N 52°22' E 004°57'3 3.4
2015-Feb-26 15:34N 52°24' E 004°53'2 2.2
2015-Feb-26 14:34N 52°24' E 004°49'0 0.0
2015-Feb-26 13:34N 52°24' E 004°49'0 0.0
2015-Feb-26 12:34N 52°24' E 004°49'0 0.0
2015-Feb-26 11:33N 52°24' E 004°49'0 0.0
2015-Feb-26 10:34N 52°24' E 004°49'0 0.1
2015-Feb-26 09:34N 52°24' E 004°50'0 0.0
2015-Feb-26 08:34N 52°24' E 004°50'0 0.1
2015-Feb-26 07:33N 52°24' E 004°50'0 0.0
2015-Feb-26 06:34N 52°24' E 004°50'0 0.0
2015-Feb-26 05:34N 52°24' E 004°50'0 0.0
2015-Feb-26 04:34N 52°24' E 004°50'0 0.0
2015-Feb-26 03:34N 52°24' E 004°50'0 0.0
2015-Feb-26 02:34N 52°24' E 004°50'0 0.0
2015-Feb-26 01:34N 52°24' E 004°50'0 0.0
2015-Feb-26 00:34N 52°24' E 004°50'0 0.0
2015-Feb-25 23:34N 52°24' E 004°50'0 0.0
2015-Feb-25 22:34N 52°24' E 004°50'0 0.0
2015-Feb-25 21:34N 52°24' E 004°50'0 0.0
2015-Feb-25 20:33N 52°24' E 004°50'0 0.0
2015-Feb-25 19:34N 52°24' E 004°50'0 0.0
2015-Feb-25 18:34N 52°24' E 004°50'0 0.0
2015-Feb-25 17:34N 52°24' E 004°50'2 1.9
2015-Feb-25 16:34N 52°24' E 004°53'2 2.3
2015-Feb-25 15:33N 52°23' E 004°56'0 0.0
2015-Feb-25 14:33N 52°23' E 004°56'0 0.0
2015-Feb-25 13:33N 52°23' E 004°56'0 0.0
2015-Feb-25 12:33N 52°23' E 004°56'0 0.0
2015-Feb-25 11:33N 52°23' E 004°56'0 0.0
2015-Feb-25 10:33N 52°23' E 004°56'6 5.9
2015-Feb-25 09:33N 52°25' E 004°47'1 1.0
2015-Feb-25 08:33N 52°25' E 004°46'0 0.0
2015-Feb-25 07:33N 52°25' E 004°46'1 1.2
2015-Feb-25 06:33N 52°25' E 004°48'1 1.4
2015-Feb-25 05:34N 52°24' E 004°49'0 0.0
2015-Feb-25 04:33N 52°24' E 004°49'0 0.0
2015-Feb-25 03:34N 52°24' E 004°49'0 0.0
2015-Feb-25 02:33N 52°24' E 004°49'0 0.0
2015-Feb-25 01:33N 52°24' E 004°49'0 0.1
2015-Feb-25 00:33N 52°24' E 004°49'0 0.0
2015-Feb-24 23:34N 52°24' E 004°49'0 0.0
2015-Feb-24 22:34N 52°24' E 004°49'0 0.0
2015-Feb-24 21:34N 52°24' E 004°49'0 0.0
2015-Feb-24 20:34N 52°24' E 004°49'0 0.0
2015-Feb-24 19:34N 52°24' E 004°49'0 0.1
2015-Feb-24 18:34N 52°24' E 004°49'1 0.9
2015-Feb-24 17:33N 52°25' E 004°49'4 3.7
2015-Feb-24 16:34N 52°23' E 004°54'7 6.5
2015-Feb-24 15:33N 52°18' E 005°01'8 7.5
2015-Feb-24 14:32N 52°11' E 004°60'6 6.3
2015-Feb-24 13:34N 52°05' E 005°05'4 4.4
2015-Feb-24 12:34N 52°01' E 005°07'1 1.5
2015-Feb-24 11:34N 52°00' E 005°05'6 5.7
2015-Feb-24 10:34N 51°58' E 004°57'7 6.8
2015-Feb-24 09:33N 51°55' E 004°47'7 7.5
2015-Feb-24 08:33N 51°54' E 004°35'7 7.0
2015-Feb-24 07:34N 51°54' E 004°23'9 8.7
2015-Feb-24 06:34N 51°57' E 004°10'5 5.1
2015-Feb-24 05:33N 51°58' E 004°02'1 1.2
2015-Feb-24 04:34N 51°58' E 004°04'0 0.0
2015-Feb-24 03:34N 51°58' E 004°04'0 0.0
2015-Feb-24 02:34N 51°58' E 004°04'0 0.0
2015-Feb-24 01:33N 51°58' E 004°04'0 0.0
2015-Feb-24 00:34N 51°58' E 004°04'0 0.0
2015-Feb-23 23:34N 51°58' E 004°04'0 0.0
2015-Feb-23 22:34N 51°58' E 004°04'0 0.1
2015-Feb-23 21:34N 51°58' E 004°04'0 0.1
2015-Feb-23 20:34N 51°58' E 004°04'0 0.0
2015-Feb-23 19:33N 51°58' E 004°04'0 0.0
2015-Feb-23 18:33N 51°58' E 004°04'0 0.0
2015-Feb-23 17:34N 51°58' E 004°04'1 1.2
2015-Feb-23 16:33N 51°58' E 004°02'0 0.3
2015-Feb-23 15:33N 51°58' E 004°02'0 0.0
2015-Feb-23 14:34N 51°58' E 004°02'0 0.0
2015-Feb-23 13:34N 51°58' E 004°02'0 0.2
2015-Feb-23 12:34N 51°58' E 004°02'7 6.5
2015-Feb-23 11:34N 51°56' E 004°13'8 8.4
2015-Feb-23 10:33N 51°54' E 004°26'1 0.7
2015-Feb-23 09:33N 51°54' E 004°26'1 0.9
2015-Feb-23 08:33N 51°54' E 004°27'7 6.8
2015-Feb-23 07:33N 51°52' E 004°38'6 6.5
2015-Feb-23 06:33N 51°49' E 004°47'5 5.2
2015-Feb-23 05:33N 51°50' E 004°55'0 0.0
2015-Feb-23 04:33N 51°50' E 004°55'0 0.0
2015-Feb-23 03:33N 51°50' E 004°55'0 0.0
2015-Feb-23 02:33N 51°50' E 004°55'0 0.0
2015-Feb-23 01:33N 51°50' E 004°55'0 0.0
2015-Feb-23 00:33N 51°50' E 004°55'0 0.0
2015-Feb-22 23:33N 51°50' E 004°55'0 0.0
2015-Feb-22 22:33N 51°50' E 004°55'0 0.0
2015-Feb-22 21:33N 51°50' E 004°55'0 0.0
2015-Feb-22 20:33N 51°50' E 004°55'0 0.0
2015-Feb-22 19:33N 51°50' E 004°55'7 6.7
2015-Feb-22 18:33N 51°50' E 005°06'9 9.4
2015-Feb-22 17:33N 51°48' E 005°21'9 9.0
2015-Feb-22 16:33N 51°54' E 005°33'10 9.6
2015-Feb-22 15:32N 51°52' E 005°48'39 7.7
2015-Feb-22 10:33N 51°32' E 006°41'10 7.1
2015-Feb-22 09:06N 51°22' E 006°39'5 8.8
2015-Feb-22 08:33N 51°17' E 006°43'7 6.7
2015-Feb-22 07:33N 51°11' E 006°45'7 6.5
2015-Feb-22 06:28N 51°06' E 006°53'11 1.2
2015-Feb-21 21:11N 50°55' E 006°58'  
Track history (hours):
 
Tides and Currents Weather Stations Pressure Air Temp Water Temp Dewpoint Dewpoint Depression Visibility Wind Speed Wind Dir Waves Ship Positions

Fidato

Last reported at 2015-Mar-03 20:26 UTC. Time now 2015-Mar-04 00:14 UTC.
Position N 48°41' E 007°54'.

Length 135 m; draft 2.5 m.

Type: Ship. MMSI: 244670975.

Date/timePositionNaut miles runAvg speedWind from/ knotsBaromVisibWave heightAir tempDewpointWater temp
2015-Mar-03 20:26N 48°41' E 007°54'4 4.2
2015-Mar-03 19:33N 48°43' E 007°58'5 5.3
2015-Mar-03 18:32N 48°47' E 008°03'5 4.6
2015-Mar-03 17:32N 48°51' E 008°07'5 5.4
2015-Mar-03 16:33N 48°56' E 008°11'5 5.2
2015-Mar-03 15:33N 48°59' E 008°17'2 1.9
2015-Mar-03 14:33N 49°01' E 008°18'0 0.0
2015-Mar-03 13:33N 49°01' E 008°18'0 0.0
2015-Mar-03 12:33N 49°01' E 008°18'0 0.0
2015-Mar-03 11:33N 49°01' E 008°18'0 0.0
2015-Mar-03 10:33N 49°01' E 008°18'0 0.0
2015-Mar-03 09:33N 49°01' E 008°18'0 0.0
2015-Mar-03 08:33N 49°01' E 008°18'0 0.0
2015-Mar-03 07:33N 49°01' E 008°18'0 0.0
2015-Mar-03 06:33N 49°01' E 008°18'0 0.0
2015-Mar-03 05:33N 49°01' E 008°18'0 0.0
2015-Mar-03 04:33N 49°01' E 008°18'0 0.0
2015-Mar-03 03:33N 49°01' E 008°18'0 0.0
2015-Mar-03 02:33N 49°01' E 008°18'0 0.0
2015-Mar-03 01:34N 49°01' E 008°18'0 0.0
2015-Mar-03 00:33N 49°01' E 008°18'0 0.0
2015-Mar-02 23:33N 49°01' E 008°18'0 0.0
2015-Mar-02 22:33N 49°01' E 008°18'0 0.0
2015-Mar-02 21:33N 49°01' E 008°18'0 0.0
2015-Mar-02 20:33N 49°01' E 008°18'0 0.0
2015-Mar-02 19:33N 49°01' E 008°18'0 0.0
2015-Mar-02 18:33N 49°01' E 008°18'0 0.0
2015-Mar-02 17:33N 49°01' E 008°18'0 0.0
2015-Mar-02 16:33N 49°01' E 008°18'0 0.0
2015-Mar-02 15:33N 49°01' E 008°18'0 0.0
2015-Mar-02 14:33N 49°01' E 008°18'0 0.0
2015-Mar-02 13:33N 49°01' E 008°18'1 1.1
2015-Mar-02 12:33N 49°02' E 008°18'4 3.9
2015-Mar-02 11:33N 49°05' E 008°21'4 3.8
2015-Mar-02 10:34N 49°09' E 008°22'4 3.6
2015-Mar-02 09:33N 49°13' E 008°23'3 3.2
2015-Mar-02 08:33N 49°15' E 008°26'4 3.6
2015-Mar-02 07:33N 49°18' E 008°29'3 3.4
2015-Mar-02 06:32N 49°22' E 008°30'122 2.6
2015-Feb-28 06:33N 51°07' E 006°52'3 2.6
2015-Feb-28 05:33N 51°09' E 006°49'3 3.1
2015-Feb-28 04:33N 51°11' E 006°45'0 0.0
2015-Feb-28 03:33N 51°11' E 006°45'0 0.0
2015-Feb-28 02:33N 51°11' E 006°45'0 0.0
2015-Feb-28 01:33N 51°11' E 006°45'0 0.0
2015-Feb-28 00:33N 51°11' E 006°45'0 0.0
2015-Feb-27 23:33N 51°11' E 006°45'3 2.9
2015-Feb-27 22:33N 51°13' E 006°43'2 2.0
2015-Feb-27 21:31N 51°15' E 006°43'5 4.3
2015-Feb-27 20:25N 51°20' E 006°42'45 3.5
2015-Feb-27 07:31N 51°51' E 005°51'6 6.3
2015-Feb-27 06:33N 51°54' E 005°42'6 6.3
2015-Feb-27 05:33N 51°53' E 005°31'4 3.9
2015-Feb-27 04:33N 51°55' E 005°26'3 3.0
2015-Feb-27 03:33N 51°57' E 005°22'0 0.0
2015-Feb-27 02:33N 51°57' E 005°22'0 0.0
2015-Feb-27 01:33N 51°57' E 005°22'0 0.0
2015-Feb-27 00:33N 51°57' E 005°22'0 0.0
2015-Feb-26 23:33N 51°57' E 005°22'0 0.0
2015-Feb-26 22:33N 51°57' E 005°22'0 0.0
2015-Feb-26 21:34N 51°57' E 005°22'2 2.0
2015-Feb-26 20:33N 51°58' E 005°19'8 7.7
2015-Feb-26 19:33N 52°02' E 005°08'7 7.4
2015-Feb-26 18:33N 52°08' E 005°02'7 7.1
2015-Feb-26 17:33N 52°15' E 005°01'7 7.1
2015-Feb-26 16:34N 52°22' E 004°57'3 3.4
2015-Feb-26 15:34N 52°24' E 004°53'2 2.2
2015-Feb-26 14:34N 52°24' E 004°49'0 0.0
2015-Feb-26 13:34N 52°24' E 004°49'0 0.0
2015-Feb-26 12:34N 52°24' E 004°49'0 0.0
2015-Feb-26 11:33N 52°24' E 004°49'0 0.0
2015-Feb-26 10:34N 52°24' E 004°49'0 0.1
2015-Feb-26 09:34N 52°24' E 004°50'0 0.0
2015-Feb-26 08:34N 52°24' E 004°50'0 0.1
2015-Feb-26 07:33N 52°24' E 004°50'0 0.0
2015-Feb-26 06:34N 52°24' E 004°50'0 0.0
2015-Feb-26 05:34N 52°24' E 004°50'0 0.0
2015-Feb-26 04:34N 52°24' E 004°50'0 0.0
2015-Feb-26 03:34N 52°24' E 004°50'0 0.0
2015-Feb-26 02:34N 52°24' E 004°50'0 0.0
2015-Feb-26 01:34N 52°24' E 004°50'0 0.0
2015-Feb-26 00:34N 52°24' E 004°50'0 0.0
2015-Feb-25 23:34N 52°24' E 004°50'0 0.0
2015-Feb-25 22:34N 52°24' E 004°50'0 0.0
2015-Feb-25 21:34N 52°24' E 004°50'0 0.0
2015-Feb-25 20:33N 52°24' E 004°50'0 0.0
2015-Feb-25 19:34N 52°24' E 004°50'0 0.0
2015-Feb-25 18:34N 52°24' E 004°50'0 0.0
2015-Feb-25 17:34N 52°24' E 004°50'2 1.9
2015-Feb-25 16:34N 52°24' E 004°53'2 2.3
2015-Feb-25 15:33N 52°23' E 004°56'0 0.0
2015-Feb-25 14:33N 52°23' E 004°56'0 0.0
2015-Feb-25 13:33N 52°23' E 004°56'0 0.0
2015-Feb-25 12:33N 52°23' E 004°56'0 0.0
2015-Feb-25 11:33N 52°23' E 004°56'0 0.0
2015-Feb-25 10:33N 52°23' E 004°56'6 5.9
2015-Feb-25 09:33N 52°25' E 004°47'1 1.0
2015-Feb-25 08:33N 52°25' E 004°46'0 0.0
2015-Feb-25 07:33N 52°25' E 004°46'1 1.2
2015-Feb-25 06:33N 52°25' E 004°48'1 1.4
2015-Feb-25 05:34N 52°24' E 004°49'0 0.0
2015-Feb-25 04:33N 52°24' E 004°49'0 0.0
2015-Feb-25 03:34N 52°24' E 004°49'0 0.0
2015-Feb-25 02:33N 52°24' E 004°49'0 0.0
2015-Feb-25 01:33N 52°24' E 004°49'0 0.1
2015-Feb-25 00:33N 52°24' E 004°49'0 0.0
2015-Feb-24 23:34N 52°24' E 004°49'0 0.0
2015-Feb-24 22:34N 52°24' E 004°49'0 0.0
2015-Feb-24 21:34N 52°24' E 004°49'0 0.0
2015-Feb-24 20:34N 52°24' E 004°49'0 0.0
2015-Feb-24 19:34N 52°24' E 004°49'0 0.1
2015-Feb-24 18:34N 52°24' E 004°49'1 0.9
2015-Feb-24 17:33N 52°25' E 004°49'4 3.7
2015-Feb-24 16:34N 52°23' E 004°54'7 6.5
2015-Feb-24 15:33N 52°18' E 005°01'8 7.5
2015-Feb-24 14:32N 52°11' E 004°60'6 6.3
2015-Feb-24 13:34N 52°05' E 005°05'4 4.4
2015-Feb-24 12:34N 52°01' E 005°07'1 1.5
2015-Feb-24 11:34N 52°00' E 005°05'6 5.7
2015-Feb-24 10:34N 51°58' E 004°57'7 6.8
2015-Feb-24 09:33N 51°55' E 004°47'7 7.5
2015-Feb-24 08:33N 51°54' E 004°35'7 7.0
2015-Feb-24 07:34N 51°54' E 004°23'9 8.7
2015-Feb-24 06:34N 51°57' E 004°10'5 5.1
2015-Feb-24 05:33N 51°58' E 004°02'1 1.2
2015-Feb-24 04:34N 51°58' E 004°04'0 0.0
2015-Feb-24 03:34N 51°58' E 004°04'0 0.0
2015-Feb-24 02:34N 51°58' E 004°04'0 0.0
2015-Feb-24 01:33N 51°58' E 004°04'0 0.0
2015-Feb-24 00:34N 51°58' E 004°04'0 0.0
2015-Feb-23 23:34N 51°58' E 004°04'0 0.0
2015-Feb-23 22:34N 51°58' E 004°04'0 0.1
2015-Feb-23 21:34N 51°58' E 004°04'0 0.1
2015-Feb-23 20:34N 51°58' E 004°04'0 0.0
2015-Feb-23 19:33N 51°58' E 004°04'0 0.0
2015-Feb-23 18:33N 51°58' E 004°04'0 0.0
2015-Feb-23 17:34N 51°58' E 004°04'1 1.2
2015-Feb-23 16:33N 51°58' E 004°02'0 0.3
2015-Feb-23 15:33N 51°58' E 004°02'0 0.0
2015-Feb-23 14:34N 51°58' E 004°02'0 0.0
2015-Feb-23 13:34N 51°58' E 004°02'0 0.2
2015-Feb-23 12:34N 51°58' E 004°02'7 6.5
2015-Feb-23 11:34N 51°56' E 004°13'8 8.4
2015-Feb-23 10:33N 51°54' E 004°26'1 0.7
2015-Feb-23 09:33N 51°54' E 004°26'1 0.9
2015-Feb-23 08:33N 51°54' E 004°27'7 6.8
2015-Feb-23 07:33N 51°52' E 004°38'6 6.5
2015-Feb-23 06:33N 51°49' E 004°47'5 5.2
2015-Feb-23 05:33N 51°50' E 004°55'0 0.0
2015-Feb-23 04:33N 51°50' E 004°55'0 0.0
2015-Feb-23 03:33N 51°50' E 004°55'0 0.0
2015-Feb-23 02:33N 51°50' E 004°55'0 0.0
2015-Feb-23 01:33N 51°50' E 004°55'0 0.0
2015-Feb-23 00:33N 51°50' E 004°55'0 0.0
2015-Feb-22 23:33N 51°50' E 004°55'0 0.0
2015-Feb-22 22:33N 51°50' E 004°55'0 0.0
2015-Feb-22 21:33N 51°50' E 004°55'0 0.0
2015-Feb-22 20:33N 51°50' E 004°55'0 0.0
2015-Feb-22 19:33N 51°50' E 004°55'7 6.7
2015-Feb-22 18:33N 51°50' E 005°06'9 9.4
2015-Feb-22 17:33N 51°48' E 005°21'9 9.0
2015-Feb-22 16:33N 51°54' E 005°33'10 9.6
2015-Feb-22 15:32N 51°52' E 005°48'39 7.7
2015-Feb-22 10:33N 51°32' E 006°41'10 7.1
2015-Feb-22 09:06N 51°22' E 006°39'5 8.8
2015-Feb-22 08:33N 51°17' E 006°43'7 6.7
2015-Feb-22 07:33N 51°11' E 006°45'7 6.5
2015-Feb-22 06:28N 51°06' E 006°53'11 1.2
2015-Feb-21 21:11N 50°55' E 006°58'  

Dump ship's entire track history